createdAt,value
2023-01-13T00:04:10.785Z,1.38
2023-01-13T00:09:13.589Z,0.90
2023-01-13T00:14:16.402Z,1.00
2023-01-13T00:19:19.192Z,1.60
2023-01-13T00:24:22.376Z,1.27
2023-01-13T00:29:25.121Z,1.52
2023-01-13T00:34:27.923Z,0.98
2023-01-13T00:39:30.736Z,1.20
2023-01-13T00:44:33.549Z,1.00
2023-01-13T00:49:36.267Z,1.20
2023-01-13T00:54:39.276Z,1.00
2023-01-13T00:59:42.784Z,0.73
2023-01-13T01:04:45.565Z,0.70
2023-01-13T01:09:49.737Z,1.05
2023-01-13T01:14:52.548Z,0.97
2023-01-13T01:19:55.271Z,0.95
2023-01-13T01:24:58.538Z,0.82
2023-01-13T01:30:01.154Z,1.20
2023-01-13T01:35:05.169Z,1.27
2023-01-13T01:40:08.425Z,1.00
2023-01-13T01:45:27.105Z,1.10
2023-01-13T01:50:30.551Z,0.73
2023-01-13T01:55:37.265Z,0.80
2023-01-13T02:00:40.115Z,1.15
2023-01-13T02:05:42.950Z,0.77
2023-01-13T02:10:50.956Z,0.75
2023-01-13T02:16:17.763Z,1.00
2023-01-13T02:21:49.331Z,1.00
2023-01-13T02:27:20.045Z,1.08
2023-01-13T02:33:07.677Z,0.90
2023-01-13T02:38:13.947Z,0.80
2023-01-13T02:43:42.612Z,1.13
2023-01-13T02:48:48.158Z,1.73
2023-01-13T02:54:18.516Z,0.80
2023-01-13T02:59:26.423Z,0.73
2023-01-13T03:04:52.443Z,0.70
2023-01-13T03:10:05.530Z,0.80
2023-01-13T03:15:37.306Z,0.80
2023-01-13T03:20:50.129Z,0.90
2023-01-13T03:26:28.786Z,1.03
2023-01-13T03:31:38.286Z,0.93
2023-01-13T03:36:44.018Z,0.93
2023-01-13T03:41:54.852Z,0.60
2023-01-13T03:47:16.262Z,0.70
2023-01-13T03:52:35.625Z,0.83
2023-01-13T03:57:46.468Z,0.65
2023-01-13T04:02:59.184Z,1.10
2023-01-13T04:08:19.245Z,0.87
2023-01-13T04:13:24.873Z,1.02
2023-01-13T04:18:30.779Z,1.00
2023-01-13T04:23:33.669Z,0.88
2023-01-13T04:28:36.309Z,1.13
2023-01-13T04:33:39.336Z,1.50
2023-01-13T04:38:42.113Z,1.13
2023-01-13T04:43:45.096Z,1.07
2023-01-13T04:48:47.685Z,1.08
2023-01-13T04:53:52.457Z,1.10
2023-01-13T04:58:55.059Z,1.20
2023-01-13T05:03:57.791Z,0.70
2023-01-13T05:09:00.713Z,1.03
2023-01-13T05:14:21.905Z,0.90
2023-01-13T05:19:24.521Z,0.52
2023-01-13T05:24:45.688Z,0.83
2023-01-13T05:29:48.415Z,1.25
2023-01-13T05:34:51.516Z,1.10
2023-01-13T05:40:13.107Z,1.23
2023-01-13T05:45:16.252Z,1.20
2023-01-13T05:50:19.237Z,0.83
2023-01-13T05:55:21.992Z,1.20
2023-01-13T06:00:25.054Z,1.07
2023-01-13T06:05:28.318Z,0.82
2023-01-13T06:10:31.608Z,1.15
2023-01-13T06:15:34.387Z,0.90
2023-01-13T06:20:37.599Z,1.13
2023-01-13T06:26:01.767Z,1.30
2023-01-13T06:31:07.660Z,1.10
2023-01-13T06:36:15.824Z,1.13
2023-01-13T06:41:39.949Z,1.20
2023-01-13T06:46:43.034Z,1.30
2023-01-13T06:51:46.807Z,1.10
2023-01-13T06:56:49.737Z,1.13
2023-01-13T07:01:52.983Z,1.20
2023-01-13T07:06:56.236Z,1.00
2023-01-13T07:11:59.017Z,1.50
2023-01-13T07:17:01.750Z,1.43
2023-01-13T07:22:04.517Z,1.15
2023-01-13T07:27:07.420Z,0.95
2023-01-13T07:32:10.345Z,1.40
2023-01-13T07:37:13.177Z,1.50
2023-01-13T07:42:34.564Z,1.07
2023-01-13T07:47:39.229Z,1.08
2023-01-13T07:52:41.900Z,0.93
2023-01-13T07:57:44.785Z,0.83
2023-01-13T08:02:47.504Z,1.20
2023-01-13T08:07:50.300Z,1.27
2023-01-13T08:13:11.549Z,1.33
2023-01-13T08:18:15.394Z,1.20
2023-01-13T08:23:18.499Z,1.30
2023-01-13T08:28:24.443Z,1.50
2023-01-13T08:33:27.986Z,1.10
2023-01-13T08:38:30.958Z,1.48
2023-01-13T08:43:33.659Z,1.10
2023-01-13T08:48:36.549Z,0.90
2023-01-13T08:53:39.464Z,1.17
2023-01-13T08:58:42.215Z,0.97
2023-01-13T09:03:44.894Z,1.13
2023-01-13T09:08:48.067Z,0.75
2023-01-13T09:13:51.198Z,1.10
2023-01-13T09:18:54.156Z,1.10
2023-01-13T09:23:57.038Z,1.13
2023-01-13T09:28:59.758Z,1.05
2023-01-13T09:34:22.120Z,1.17
2023-01-13T09:39:25.116Z,1.53
2023-01-13T09:44:37.594Z,1.20
2023-01-13T09:49:43.260Z,1.30
2023-01-13T09:55:00.877Z,0.98
2023-01-13T10:00:12.615Z,0.82
2023-01-13T10:05:34.030Z,1.00
2023-01-13T10:10:46.552Z,1.40
2023-01-13T10:16:12.607Z,1.30
2023-01-13T10:21:53.913Z,1.27
2023-01-13T10:27:13.319Z,1.15
2023-01-13T10:32:16.004Z,1.37
2023-01-13T10:37:27.461Z,1.02
2023-01-13T10:42:30.236Z,1.30
2023-01-13T10:47:35.722Z,1.00
2023-01-13T10:52:43.229Z,1.27
2023-01-13T10:57:45.968Z,1.03
2023-01-13T11:03:16.276Z,1.30
2023-01-13T11:08:29.071Z,0.90
2023-01-13T11:14:04.017Z,1.30
2023-01-13T11:19:14.266Z,0.80
2023-01-13T11:24:37.106Z,1.27
2023-01-13T11:29:56.623Z,1.20
2023-01-13T11:35:14.679Z,1.10
2023-01-13T11:40:47.085Z,0.68
2023-01-13T11:45:54.071Z,1.02
2023-01-13T11:51:15.144Z,0.83
2023-01-13T11:56:55.302Z,0.90
2023-01-13T12:02:19.423Z,1.17
2023-01-13T12:07:28.207Z,1.00
2023-01-13T12:12:39.995Z,1.10
2023-01-13T12:17:55.237Z,0.70
2023-01-13T12:23:04.504Z,1.17
2023-01-13T12:28:25.490Z,1.00
2023-01-13T12:34:00.918Z,1.05
2023-01-13T12:39:28.836Z,1.30
2023-01-13T12:44:31.984Z,1.50
2023-01-13T12:49:36.908Z,1.30
2023-01-13T12:54:45.189Z,1.30
2023-01-13T12:59:59.889Z,1.83
2023-01-13T13:05:24.366Z,1.35
2023-01-13T13:10:43.192Z,1.97
2023-01-13T13:15:49.861Z,2.05
2023-01-13T13:21:04.750Z,1.57
2023-01-13T13:26:13.521Z,1.63
2023-01-13T13:31:41.886Z,1.25
2023-01-13T13:37:57.025Z,0.93
2023-01-13T13:43:18.987Z,1.38
2023-01-13T13:48:31.188Z,1.80
2023-01-13T13:53:36.756Z,1.50
2023-01-13T13:58:40.417Z,1.60
2023-01-13T14:03:43.228Z,0.90
2023-01-13T14:08:50.751Z,1.70
2023-01-13T14:14:03.176Z,1.67
2023-01-13T14:19:06.010Z,2.00
2023-01-13T14:24:16.649Z,1.42
2023-01-13T14:29:25.212Z,1.17
2023-01-13T14:34:32.686Z,1.85
2023-01-13T14:39:41.624Z,1.80
2023-01-13T14:44:48.987Z,1.05
2023-01-13T14:50:01.324Z,1.30
2023-01-13T14:55:10.440Z,1.43
2023-01-13T15:00:16.079Z,1.05
2023-01-13T15:05:24.786Z,1.57
2023-01-13T15:10:30.754Z,3.22
2023-01-13T15:15:34.682Z,1.83
2023-01-13T15:20:37.470Z,2.10
2023-01-13T15:25:43.818Z,2.10
2023-01-13T15:30:47.268Z,1.73
2023-01-13T15:35:52.881Z,1.40
2023-01-13T15:40:55.689Z,1.70
2023-01-13T15:46:16.929Z,1.27
2023-01-13T15:51:21.331Z,2.10
2023-01-13T15:56:26.996Z,2.30
2023-01-13T16:01:29.858Z,2.08
2023-01-13T16:06:33.296Z,1.70
2023-01-13T16:11:36.083Z,1.47
2023-01-13T16:16:39.096Z,1.90
2023-01-13T16:21:41.933Z,2.07
2023-01-13T16:26:45.085Z,2.30
2023-01-13T16:31:47.853Z,2.38
2023-01-13T16:36:50.674Z,2.70
2023-01-13T16:41:53.615Z,2.60
2023-01-13T16:46:56.320Z,2.60
2023-01-13T16:51:59.148Z,2.80
2023-01-13T16:57:01.901Z,3.10
2023-01-13T17:02:05.624Z,3.10
2023-01-13T17:07:08.863Z,2.10
2023-01-13T17:12:12.018Z,3.00
2023-01-13T17:17:32.722Z,3.20
2023-01-13T17:22:35.627Z,2.22
2023-01-13T17:27:38.580Z,2.80
2023-01-13T17:32:42.246Z,2.05
2023-01-13T17:37:45.423Z,2.20
2023-01-13T17:42:48.231Z,2.55
2023-01-13T17:47:51.533Z,2.40
2023-01-13T17:52:54.677Z,2.30
2023-01-13T17:57:57.496Z,3.50
2023-01-13T18:03:00.298Z,2.13
2023-01-13T18:08:03.280Z,2.33
2023-01-13T18:13:06.734Z,2.60
2023-01-13T18:18:09.418Z,2.60
2023-01-13T18:23:38.010Z,3.05
2023-01-13T18:28:41.388Z,3.40
2023-01-13T18:33:44.137Z,3.20
2023-01-13T18:38:46.876Z,2.83
2023-01-13T18:43:49.904Z,2.50
2023-01-13T18:48:52.725Z,2.08
2023-01-13T18:53:55.962Z,2.13
2023-01-13T18:58:59.377Z,2.38
2023-01-13T19:04:04.406Z,1.92
2023-01-13T19:09:11.331Z,2.53
2023-01-13T19:14:34.344Z,1.42
2023-01-13T19:19:44.656Z,1.90
2023-01-13T19:24:47.459Z,2.22
2023-01-13T19:29:52.450Z,2.85
2023-01-13T19:34:59.486Z,3.50
2023-01-13T19:40:04.951Z,3.03
2023-01-13T19:45:27.607Z,2.17
2023-01-13T19:50:30.411Z,2.53
2023-01-13T19:55:33.445Z,3.08
2023-01-13T20:00:36.541Z,1.10
2023-01-13T20:05:39.468Z,1.90
2023-01-13T20:10:44.554Z,1.80
2023-01-13T20:15:47.228Z,1.75
2023-01-13T20:20:50.138Z,2.50
2023-01-13T20:25:52.887Z,1.93
2023-01-13T20:30:56.192Z,1.85
2023-01-13T20:35:59.563Z,2.17
2023-01-13T20:41:22.935Z,2.28
2023-01-13T20:46:26.129Z,2.08
2023-01-13T20:51:29.163Z,2.47
2023-01-13T20:56:32.766Z,2.22
2023-01-13T21:01:36.252Z,3.00
2023-01-13T21:06:39.205Z,2.60
2023-01-13T21:12:00.876Z,3.25
2023-01-13T21:17:04.226Z,1.43
2023-01-13T21:22:07.103Z,2.15
2023-01-13T21:27:10.325Z,2.73
2023-01-13T21:32:13.416Z,3.05
2023-01-13T21:37:16.793Z,1.50
2023-01-13T21:42:37.788Z,2.30
2023-01-13T21:47:49.829Z,1.48
2023-01-13T21:52:53.226Z,1.30
2023-01-13T21:57:58.822Z,1.30
2023-01-13T22:03:06.896Z,1.45
2023-01-13T22:08:13.104Z,0.90
2023-01-13T22:13:34.449Z,1.00
2023-01-13T22:18:37.302Z,1.37
2023-01-13T22:23:40.140Z,1.05
2023-01-13T22:28:43.756Z,1.58
2023-01-13T22:33:49.555Z,2.00
2023-01-13T22:39:00.892Z,1.10
2023-01-13T22:44:03.573Z,1.30
2023-01-13T22:49:06.419Z,1.40
2023-01-13T22:54:10.359Z,1.13
2023-01-13T22:59:14.883Z,1.40
2023-01-13T23:04:17.750Z,1.42
2023-01-13T23:09:20.728Z,1.53
2023-01-13T23:14:23.734Z,1.30
2023-01-13T23:19:26.501Z,1.27
2023-01-13T23:24:29.575Z,1.03
2023-01-13T23:29:32.276Z,0.77
2023-01-13T23:34:34.966Z,1.50
2023-01-13T23:39:37.706Z,1.58
2023-01-13T23:44:40.545Z,1.35
2023-01-13T23:49:43.339Z,1.50
2023-01-13T23:54:46.120Z,1.50
2023-01-13T23:59:48.816Z,1.50
